Detall de PIREP

Printer-friendly versionPDF version

[2013/07/24 15:12:00]
Flight IATA:CT1004
Pilot Number:012
Company ICAO:CAT
Aircraft Type:BE20/A
PAX:6
Departing Airport: LEBL
Destination Airport: LIMJ
Alternate Airport:LIMC
Online: VATSIM
Route:AGENA UM985 PIGOS/N0365F180 Y15 ABN
Flight Level:F300
No Slew and time accel
No pause
Crash detect
Detect pilot in Cockpit between each 30 and 45 minutes
15:12 Zero fuel Weight: 9658 Lbs, Fuel Weight: 1933 Lbs
15:12 VATSIM:LEBL 241500Z 21013KT 9999 FEW030 30/22 Q1016 NOSIG
15:12 VATSIM:LIMJ 241450Z 15007KT 9999 FEW018 FEW020TCU 28/22 Q1016
15:12 VOICE CATALONIAN / SUMMER CHARTER
15:28 Parking Brakes off
15:34 Take-off
15:34 Take off Weight: 11558 Lbs
15:34 Wind: 210º @ 013 Knots Heading: 242º
15:34 POS N41º 17´ 19´´ E002º 05´ 35´´
15:34 Gear Up: 125 Knots
15:34 Flaps:1 at 125 Knots
15:34 Flaps:0 at 129 Knots
15:49 Wind:311º@024 Knots Heading: 084º Ground Speed: 206 Knots Altitude 23779 ft
15:56 TOC
15:56 Fuel Weight: 1636 Lb
16:04 Wind:313º@033 Knots Heading: 032º Ground Speed: 243 Knots Altitude 30052 ft
16:19 Wind:313º@032 Knots Heading: 072º Ground Speed: 268 Knots Altitude 30045 ft
16:34 Wind:304º@030 Knots Heading: 032º Ground Speed: 252 Knots Altitude 30022 ft
16:49 Wind:299º@031 Knots Heading: 033º Ground Speed: 256 Knots Altitude 30013 ft
17:01 TOD
17:01 Fuel Weight: 1114 Lb
17:04 Wind:298º@025 Knots Heading: 048º Ground Speed: 289 Knots Altitude 26686 ft
17:19 Wind:174º@005 Knots Heading: 132º Ground Speed: 156 Knots Altitude 2234 ft
17:19 Flaps:1 at 143 Knots
17:22 Flaps:2 at 127 Knots
17:22 Gear Down: 126 Knots
17:23 TouchDown:Rate -203 ft/min Speed: 102 Knots
17:24 VATSIM:LIMJ 241650Z 14005KT 100V170 9999 FEW015 SCT018 FEW025TCU 26/23 Q1015
17:24 Land
17:24 Wind:150º@005 Knots
17:24 Heading: 287º
17:24 Flight Duration: 01:50
17:24 Landing Weight: 10651 Lbs
17:24 POS N44º 24´ 46´´ E008º 50´ 13´´
17:27 Parking brakes on
17:27 Block to Block Duration: 01:59
17:27 Final Fuel: 985 Lbls
17:27 Spent Fuel: 947 Lbls
17:27 Flight Length: 431 NM
17:27 TOD Land Length: 87 NM

Exportar CSV

Powered by Drupal - Modified by Danger4k